Time;durP1;ratioP1;P1;durP2;ratioP2;P2;SDS_P1;SDS_P2;PMS_P1;PMS_P2;Temp;Humidity;BMP_temperature;BMP_pressure;BME280_temperature;BME280_humidity;BME280_pressure;Samples;Min_cycle;Max_cycle;Signal;HPM_P1;HPM_P2
2021/10/11 00:00:45;;;;;;;0.20;0.20;;;;;;;;;;10428562;28;20052;-67
2021/10/11 00:05:48;;;;;;;0.20;0.20;;;;;;;;;;10430026;28;20222;-67
2021/10/11 00:10:52;;;;;;;0.20;0.20;;;;;;;;;;10428871;28;20057;-67
2021/10/11 00:15:57;;;;;;;0.17;0.17;;;;;;;;;;10413180;28;20044;-67
2021/10/11 00:20:59;;;;;;;0.20;0.20;;;;;;;;;;10426420;28;20051;-67
2021/10/11 00:26:02;;;;;;;0.20;0.20;;;;;;;;;;10430845;28;20057;-67
2021/10/11 00:31:06;;;;;;;0.10;0.10;;;;;;;;;;10440059;28;20045;-67
2021/10/11 00:36:10;;;;;;;0.20;0.20;;;;;;;;;;10442241;28;20491;-67
2021/10/11 00:41:13;;;;;;;0.13;0.13;;;;;;;;;;10439809;28;20047;-67
2021/10/11 00:46:18;;;;;;;0.13;0.13;;;;;;;;;;10442191;28;20055;-67
2021/10/11 00:51:21;;;;;;;0.20;0.20;;;;;;;;;;10439148;28;20178;-67
2021/10/11 00:56:24;;;;;;;0.10;0.10;;;;;;;;;;10439433;28;20076;-66
2021/10/11 01:01:28;;;;;;;0.20;0.20;;;;;;;;;;10439810;28;20049;-69
2021/10/11 01:06:33;;;;;;;0.20;0.20;;;;;;;;;;10440449;28;20359;-68
2021/10/11 01:11:37;;;;;;;0.20;0.20;;;;;;;;;;10420422;28;20133;-67
2021/10/11 01:16:41;;;;;;;0.20;0.20;;;;;;;;;;10439203;28;20702;-67
2021/10/11 01:21:45;;;;;;;0.20;0.20;;;;;;;;;;10440155;28;20049;-67
2021/10/11 01:26:48;;;;;;;0.20;0.20;;;;;;;;;;10437236;28;20060;-67
2021/10/11 01:31:51;;;;;;;0.20;0.20;;;;;;;;;;10438926;28;20049;-67
2021/10/11 01:36:56;;;;;;;0.10;0.10;;;;;;;;;;10436583;28;20048;-67
2021/10/11 01:42:01;;;;;;;0.17;0.17;;;;;;;;;;10437960;28;20041;-66
2021/10/11 01:47:04;;;;;;;0.10;0.10;;;;;;;;;;10438983;28;20650;-66
2021/10/11 01:52:09;;;;;;;0.20;0.20;;;;;;;;;;10438195;28;20057;-66
2021/10/11 01:57:12;;;;;;;0.20;0.20;;;;;;;;;;10437906;28;20044;-67
2021/10/11 02:02:17;;;;;;;0.20;0.20;;;;;;;;;;10437463;28;20041;-67
2021/10/11 02:07:21;;;;;;;0.10;0.10;;;;;;;;;;10436939;28;20041;-66
2021/10/11 02:12:24;;;;;;;0.20;0.20;;;;;;;;;;10437818;28;20044;-67
2021/10/11 02:17:27;;;;;;;0.20;0.20;;;;;;;;;;10437650;28;20490;-66
2021/10/11 02:22:33;;;;;;;0.20;0.20;;;;;;;;;;10434919;28;20686;-67
2021/10/11 02:27:37;;;;;;;0.10;0.10;;;;;;;;;;10436113;28;20037;-67
2021/10/11 02:32:41;;;;;;;0.20;0.20;;;;;;;;;;10433836;28;20052;-67
2021/10/11 02:37:45;;;;;;;0.10;0.10;;;;;;;;;;10436085;28;20031;-67
2021/10/11 02:42:49;;;;;;;0.20;0.20;;;;;;;;;;10436615;28;20047;-67
2021/10/11 02:47:52;;;;;;;0.40;0.20;;;;;;;;;;10435833;28;20060;-67
2021/10/11 02:53:02;;;;;;;0.20;0.20;;;;;;;;;;10435888;28;20045;-67
2021/10/11 02:58:05;;;;;;;0.20;0.20;;;;;;;;;;10418410;28;20048;-67
2021/10/11 03:03:09;;;;;;;0.10;0.10;;;;;;;;;;10437054;28;20453;-67
2021/10/11 03:08:13;;;;;;;0.20;0.20;;;;;;;;;;10437120;28;20499;-66
2021/10/11 03:13:17;;;;;;;0.20;0.20;;;;;;;;;;10439684;28;20419;-66
2021/10/11 03:18:27;;;;;;;0.20;0.20;;;;;;;;;;10445094;28;20548;-68
2021/10/11 03:23:37;;;;;;;0.10;0.10;;;;;;;;;;10443303;28;20057;-67
2021/10/11 03:28:42;;;;;;;0.10;0.10;;;;;;;;;;10445501;28;20443;-67
2021/10/11 03:33:47;;;;;;;0.20;0.20;;;;;;;;;;10441235;28;20506;-66
2021/10/11 03:39:00;;;;;;;0.10;0.10;;;;;;;;;;10439065;28;20127;-66
2021/10/11 03:44:05;;;;;;;0.20;0.20;;;;;;;;;;10441988;28;20041;-66
2021/10/11 03:49:14;;;;;;;0.30;0.30;;;;;;;;;;10440791;28;20151;-67
2021/10/11 03:54:18;;;;;;;0.10;0.10;;;;;;;;;;10421858;28;20064;-67
2021/10/11 03:59:23;;;;;;;0.20;0.20;;;;;;;;;;10437444;28;20037;-68
2021/10/11 04:04:29;;;;;;;0.20;0.20;;;;;;;;;;10444368;28;20045;-67
2021/10/11 04:09:34;;;;;;;0.20;0.20;;;;;;;;;;10447661;28;20725;-66
2021/10/11 04:14:41;;;;;;;0.20;0.20;;;;;;;;;;10431665;28;20045;-67
2021/10/11 04:19:44;;;;;;;0.10;0.10;;;;;;;;;;10433750;28;20064;-66
2021/10/11 04:24:48;;;;;;;0.20;0.20;;;;;;;;;;10447429;28;20479;-67
2021/10/11 04:29:51;;;;;;;0.20;0.20;;;;;;;;;;10446765;28;21280;-67
2021/10/11 04:34:54;;;;;;;0.20;0.20;;;;;;;;;;10446904;28;20063;-67
2021/10/11 04:39:59;;;;;;;0.10;0.10;;;;;;;;;;10426300;28;20049;-68
2021/10/11 04:45:02;;;;;;;0.20;0.20;;;;;;;;;;10448038;28;20115;-67
2021/10/11 04:50:05;;;;;;;0.20;0.20;;;;;;;;;;10446732;28;20047;-67
2021/10/11 04:55:09;;;;;;;0.20;0.20;;;;;;;;;;10446203;28;20048;-67
2021/10/11 05:00:13;;;;;;;0.20;0.20;;;;;;;;;;10443939;28;20041;-67
2021/10/11 05:05:16;;;;;;;0.30;0.20;;;;;;;;;;10445710;28;20501;-66
2021/10/11 05:10:20;;;;;;;0.20;0.20;;;;;;;;;;10444925;28;20384;-67
2021/10/11 05:15:22;;;;;;;0.20;0.20;;;;;;;;;;10444817;28;20055;-67
2021/10/11 05:20:26;;;;;;;0.20;0.20;;;;;;;;;;10444814;28;20048;-68
2021/10/11 05:25:30;;;;;;;0.20;0.20;;;;;;;;;;10445224;28;20065;-66
2021/10/11 05:30:33;;;;;;;0.15;0.15;;;;;;;;;;10444444;28;20045;-67
2021/10/11 05:35:37;;;;;;;0.20;0.20;;;;;;;;;;10446041;28;20044;-68
2021/10/11 05:40:41;;;;;;;0.10;0.10;;;;;;;;;;10444231;28;20464;-67
2021/10/11 05:45:46;;;;;;;0.17;0.17;;;;;;;;;;10426456;28;20060;-67
2021/10/11 05:50:48;;;;;;;0.20;0.20;;;;;;;;;;10443768;28;20041;-67
2021/10/11 05:55:52;;;;;;;0.20;0.20;;;;;;;;;;10444334;28;20045;-67
2021/10/11 06:00:55;;;;;;;0.17;0.17;;;;;;;;;;10425299;28;20048;-67
2021/10/11 06:05:59;;;;;;;0.10;0.10;;;;;;;;;;10440588;28;20103;-67
2021/10/11 06:11:03;;;;;;;0.20;0.20;;;;;;;;;;10439784;28;20055;-67
2021/10/11 06:16:06;;;;;;;0.13;0.13;;;;;;;;;;10444279;28;20779;-67
2021/10/11 06:21:08;;;;;;;0.17;0.17;;;;;;;;;;10443097;28;20061;-67
2021/10/11 06:26:13;;;;;;;0.10;0.10;;;;;;;;;;10424988;28;20056;-68
2021/10/11 06:31:15;;;;;;;0.20;0.20;;;;;;;;;;10443508;28;20041;-67
2021/10/11 06:36:18;;;;;;;0.20;0.20;;;;;;;;;;10442668;28;20123;-67
2021/10/11 06:41:22;;;;;;;0.20;0.20;;;;;;;;;;10440223;28;20036;-67
2021/10/11 06:46:25;;;;;;;0.15;0.15;;;;;;;;;;10437747;28;20045;-69
2021/10/11 06:51:28;;;;;;;0.20;0.20;;;;;;;;;;10439699;28;20037;-68
2021/10/11 06:56:32;;;;;;;0.22;0.15;;;;;;;;;;10439002;28;20059;-67
2021/10/11 07:01:34;;;;;;;0.10;0.10;;;;;;;;;;10421330;28;20045;-67
2021/10/11 07:06:39;;;;;;;0.20;0.20;;;;;;;;;;10438160;28;20051;-67
2021/10/11 07:11:43;;;;;;;0.10;0.10;;;;;;;;;;10437862;28;20048;-67
2021/10/11 07:16:46;;;;;;;0.10;0.10;;;;;;;;;;10439481;28;21046;-67
2021/10/11 07:21:51;;;;;;;0.35;0.10;;;;;;;;;;10438106;28;20272;-68
2021/10/11 07:26:55;;;;;;;0.10;0.10;;;;;;;;;;10435604;28;20052;-67
2021/10/11 07:31:58;;;;;;;0.20;0.20;;;;;;;;;;10420682;28;20366;-67
2021/10/11 07:37:01;;;;;;;0.20;0.20;;;;;;;;;;10439152;28;20463;-68
2021/10/11 07:42:05;;;;;;;0.20;0.20;;;;;;;;;;10419885;28;20049;-68
2021/10/11 07:47:08;;;;;;;0.20;0.20;;;;;;;;;;10438873;28;20760;-68
2021/10/11 07:52:10;;;;;;;0.20;0.20;;;;;;;;;;10438334;28;20591;-67
2021/10/11 07:57:17;;;;;;;0.10;0.10;;;;;;;;;;10439227;28;20746;-67
2021/10/11 08:02:19;;;;;;;0.10;0.10;;;;;;;;;;10393405;28;20702;-68
2021/10/11 08:07:22;;;;;;;0.20;0.20;;;;;;;;;;10397001;28;20506;-67
2021/10/11 08:12:27;;;;;;;0.10;0.10;;;;;;;;;;10396713;28;20048;-69
2021/10/11 08:17:30;;;;;;;0.10;0.10;;;;;;;;;;10398300;28;20049;-68
2021/10/11 08:22:33;;;;;;;0.17;0.10;;;;;;;;;;10396231;28;20257;-68
2021/10/11 08:27:37;;;;;;;0.10;0.10;;;;;;;;;;10396822;28;20037;-68
2021/10/11 08:32:40;;;;;;;0.10;0.10;;;;;;;;;;10398282;28;20041;-68
2021/10/11 08:37:42;;;;;;;0.10;0.10;;;;;;;;;;10397181;28;20684;-68
2021/10/11 08:42:47;;;;;;;0.20;0.20;;;;;;;;;;10397072;28;20534;-68
2021/10/11 08:47:50;;;;;;;0.20;0.20;;;;;;;;;;10382265;28;20136;-68
2021/10/11 08:52:53;;;;;;;0.20;0.20;;;;;;;;;;10405404;28;20077;-68
2021/10/11 08:58:02;;;;;;;0.17;0.17;;;;;;;;;;10405002;28;20041;-67
2021/10/11 09:03:05;;;;;;;0.10;0.10;;;;;;;;;;10387688;28;20120;-67
2021/10/11 09:08:09;;;;;;;0.10;0.10;;;;;;;;;;10405577;28;20053;-67
2021/10/11 09:13:14;;;;;;;0.10;0.10;;;;;;;;;;10403772;28;20041;-67
2021/10/11 09:18:27;;;;;;;0.10;0.10;;;;;;;;;;10405620;28;20059;-67
2021/10/11 09:23:31;;;;;;;0.10;0.10;;;;;;;;;;10383332;28;20057;-68
2021/10/11 09:28:35;;;;;;;0.20;0.20;;;;;;;;;;10405453;28;20049;-68
2021/10/11 09:33:43;;;;;;;0.10;0.10;;;;;;;;;;10407156;28;20047;-68
2021/10/11 09:38:57;;;;;;;0.10;0.10;;;;;;;;;;10401021;28;20045;-68
2021/10/11 09:44:10;;;;;;;0.20;0.20;;;;;;;;;;10402776;28;20049;-68
2021/10/11 09:49:14;;;;;;;0.20;0.20;;;;;;;;;;10405981;28;20051;-68
2021/10/11 09:54:18;;;;;;;0.20;0.20;;;;;;;;;;10405925;28;20140;-68
2021/10/11 09:59:22;;;;;;;0.20;0.20;;;;;;;;;;10403795;28;20474;-68
2021/10/11 10:04:26;;;;;;;0.20;0.20;;;;;;;;;;10382524;28;20053;-67
2021/10/11 10:09:33;;;;;;;0.20;0.20;;;;;;;;;;10379365;28;20722;-67
2021/10/11 10:14:37;;;;;;;0.20;0.20;;;;;;;;;;10402431;28;20514;-68
2021/10/11 10:19:41;;;;;;;0.13;0.13;;;;;;;;;;10406473;28;20047;-69
2021/10/11 10:24:44;;;;;;;0.10;0.10;;;;;;;;;;10404216;28;20041;-69
2021/10/11 10:29:49;;;;;;;0.20;0.20;;;;;;;;;;10405380;28;20106;-69
2021/10/11 10:34:59;;;;;;;0.65;0.10;;;;;;;;;;10415888;28;20279;-70
2021/10/11 10:40:07;;;;;;;0.10;0.10;;;;;;;;;;10424106;28;20149;-69
2021/10/11 10:45:16;;;;;;;0.15;0.15;;;;;;;;;;10403836;28;20099;-68
2021/10/11 10:50:19;;;;;;;0.15;0.15;;;;;;;;;;10383663;28;20042;-68
2021/10/11 10:55:22;;;;;;;0.20;0.20;;;;;;;;;;10404252;28;20049;-68
2021/10/11 11:00:28;;;;;;;0.10;0.10;;;;;;;;;;10403087;28;20056;-68
2021/10/11 11:05:31;;;;;;;0.10;0.10;;;;;;;;;;10382755;28;20053;-68
2021/10/11 11:10:35;;;;;;;0.10;0.10;;;;;;;;;;10402533;28;20084;-68
2021/10/11 11:15:40;;;;;;;0.20;0.20;;;;;;;;;;10403175;28;20456;-68
2021/10/11 11:20:43;;;;;;;0.20;0.20;;;;;;;;;;10402895;28;20030;-68
2021/10/11 11:25:47;;;;;;;0.10;0.10;;;;;;;;;;10402161;28;20554;-67
2021/10/11 11:30:51;;;;;;;0.10;0.10;;;;;;;;;;10402543;28;20040;-68
2021/10/11 11:35:55;;;;;;;0.10;0.10;;;;;;;;;;10402603;28;20147;-68
2021/10/11 11:40:59;;;;;;;0.10;0.10;;;;;;;;;;10401980;28;20491;-68
2021/10/11 11:46:04;;;;;;;0.10;0.10;;;;;;;;;;10384835;28;20053;-68
2021/10/11 11:51:07;;;;;;;0.13;0.13;;;;;;;;;;10401496;28;20050;-68
2021/10/11 11:56:17;;;;;;;0.10;0.10;;;;;;;;;;10401796;28;20049;-68
2021/10/11 12:01:26;;;;;;;0.10;0.10;;;;;;;;;;10400246;28;20395;-68
2021/10/11 12:06:31;;;;;;;0.15;0.15;;;;;;;;;;10400486;28;20049;-69
2021/10/11 12:11:33;;;;;;;0.20;0.20;;;;;;;;;;10401285;28;20124;-69
2021/10/11 12:16:38;;;;;;;0.35;0.10;;;;;;;;;;10382204;28;20056;-69
2021/10/11 12:21:42;;;;;;;0.10;0.10;;;;;;;;;;10382427;28;20491;-69
2021/10/11 12:26:46;;;;;;;0.20;0.20;;;;;;;;;;10406656;28;20038;-69
2021/10/11 12:32:05;;;;;;;0.10;0.10;;;;;;;;;;10408790;28;20048;-69
2021/10/11 12:37:10;;;;;;;0.20;0.20;;;;;;;;;;10404684;28;20487;-69
2021/10/11 12:42:15;;;;;;;0.10;0.10;;;;;;;;;;10401458;28;20034;-69
2021/10/11 12:47:26;;;;;;;0.10;0.10;;;;;;;;;;10401638;28;20049;-68
2021/10/11 12:52:33;;;;;;;0.10;0.10;;;;;;;;;;10398903;28;20140;-68
2021/10/11 12:57:36;;;;;;;0.10;0.10;;;;;;;;;;10404368;28;20843;-67
2021/10/11 13:02:44;;;;;;;0.10;0.10;;;;;;;;;;10401056;28;20045;-67
2021/10/11 13:07:47;;;;;;;0.20;0.20;;;;;;;;;;10403557;28;20058;-68
2021/10/11 13:12:50;;;;;;;0.10;0.10;;;;;;;;;;10402306;28;20041;-68
2021/10/11 13:17:54;;;;;;;0.10;0.10;;;;;;;;;;10403547;28;20052;-67
2021/10/11 13:22:57;;;;;;;0.10;0.10;;;;;;;;;;10402218;28;20091;-68
2021/10/11 13:28:02;;;;;;;0.10;0.10;;;;;;;;;;10396135;28;20506;-69
2021/10/11 14:27:36;;;;;;;0.10;0.10;;;;;;;;;;10397906;28;20049;-67
2021/10/11 14:32:06;;;;;;;0.10;0.10;;;;;;;;;;10398067;28;20049;-65
2021/10/11 16:03:28;;;;;;;0.05;0.05;;;;;;;;;;10384942;28;20072;-68
2021/10/11 16:08:32;;;;;;;0.10;0.10;;;;;;;;;;10398064;28;20061;-67
2021/10/11 16:13:36;;;;;;;0.10;0.10;;;;;;;;;;10401065;28;20053;-67
2021/10/11 16:18:39;;;;;;;0.10;0.10;;;;;;;;;;10401836;28;20037;-68
2021/10/11 16:23:44;;;;;;;0.10;0.10;;;;;;;;;;10384543;28;20484;-69
2021/10/11 16:28:48;;;;;;;0.10;0.10;;;;;;;;;;10399091;28;20088;-67
2021/10/11 16:33:51;;;;;;;0.10;0.10;;;;;;;;;;10401012;28;20399;-67
2021/10/11 16:38:54;;;;;;;0.10;0.10;;;;;;;;;;10398904;28;20041;-69
2021/10/11 16:44:22;;;;;;;0.28;0.20;;;;;;;;;;10382163;28;20211;-69
2021/10/11 16:49:27;;;;;;;0.10;0.10;;;;;;;;;;10399214;28;20045;-69
2021/10/11 16:54:30;;;;;;;0.10;0.10;;;;;;;;;;10398608;28;20507;-69
2021/10/11 16:59:37;;;;;;;0.10;0.10;;;;;;;;;;10379548;28;20049;-68
2021/10/11 17:04:41;;;;;;;0.10;0.10;;;;;;;;;;10399422;28;20043;-67
2021/10/11 17:09:44;;;;;;;0.10;0.10;;;;;;;;;;10399567;28;20381;-69
2021/10/11 17:14:47;;;;;;;0.10;0.10;;;;;;;;;;10396871;28;20546;-69
2021/10/11 17:19:51;;;;;;;0.10;0.10;;;;;;;;;;10398681;28;20053;-69
2021/10/11 17:24:54;;;;;;;0.15;0.15;;;;;;;;;;10400090;28;20037;-68
2021/10/11 17:29:57;;;;;;;0.00;0.00;;;;;;;;;;10378382;28;20064;-69
2021/10/11 17:35:01;;;;;;;0.10;0.10;;;;;;;;;;10398476;28;20045;-64
2021/10/11 17:40:06;;;;;;;0.10;0.10;;;;;;;;;;10397219;28;20053;-71
2021/10/11 17:45:11;;;;;;;0.10;0.10;;;;;;;;;;10396927;28;20115;-69
2021/10/11 17:50:15;;;;;;;0.10;0.10;;;;;;;;;;10396650;28;20056;-71
2021/10/11 17:55:36;;;;;;;0.30;0.10;;;;;;;;;;10382031;28;20045;-69
2021/10/11 18:00:39;;;;;;;0.10;0.10;;;;;;;;;;10384636;28;20092;-69
2021/10/11 18:05:43;;;;;;;0.10;0.10;;;;;;;;;;10399962;28;20037;-67
2021/10/11 18:10:47;;;;;;;0.08;0.08;;;;;;;;;;10399975;28;20050;-68
2021/10/11 18:15:50;;;;;;;0.10;0.10;;;;;;;;;;10380181;28;20392;-69
2021/10/11 18:20:54;;;;;;;0.20;0.20;;;;;;;;;;10402098;28;20045;-69
2021/10/11 18:26:00;;;;;;;0.10;0.10;;;;;;;;;;10413806;28;20502;-67
2021/10/11 18:31:03;;;;;;;0.10;0.10;;;;;;;;;;10420360;28;20049;-70
2021/10/11 18:36:07;;;;;;;0.10;0.10;;;;;;;;;;10377572;28;20053;-71
2021/10/11 18:41:10;;;;;;;0.10;0.10;;;;;;;;;;10377770;28;20160;-67
2021/10/11 18:46:13;;;;;;;0.10;0.10;;;;;;;;;;10377536;28;20419;-73
2021/10/11 18:51:17;;;;;;;0.10;0.10;;;;;;;;;;10377130;28;20141;-72
2021/10/11 18:56:20;;;;;;;0.10;0.10;;;;;;;;;;10375329;28;20071;-72
2021/10/11 19:01:23;;;;;;;0.10;0.10;;;;;;;;;;10394504;28;20038;-72
2021/10/11 19:06:35;;;;;;;0.10;0.10;;;;;;;;;;10370067;28;20056;-72
2021/10/11 19:11:39;;;;;;;0.10;0.10;;;;;;;;;;10390946;28;20057;-73
2021/10/11 19:16:44;;;;;;;0.20;0.20;;;;;;;;;;10393346;28;20049;-73
2021/10/11 19:21:49;;;;;;;0.10;0.10;;;;;;;;;;10390095;28;20048;-72
2021/10/11 19:26:52;;;;;;;0.10;0.10;;;;;;;;;;10391619;28;20057;-71
2021/10/11 19:31:55;;;;;;;0.20;0.20;;;;;;;;;;10392478;28;20056;-71
2021/10/11 19:36:59;;;;;;;0.10;0.10;;;;;;;;;;10391265;28;20128;-67
2021/10/11 19:42:02;;;;;;;0.10;0.10;;;;;;;;;;10386592;28;20056;-67
2021/10/11 19:47:05;;;;;;;0.10;0.10;;;;;;;;;;10390462;28;20046;-73
2021/10/11 19:52:10;;;;;;;0.22;0.10;;;;;;;;;;10388485;28;20041;-70
2021/10/11 19:57:12;;;;;;;0.10;0.10;;;;;;;;;;10391091;28;20042;-69
2021/10/11 20:02:16;;;;;;;0.15;0.15;;;;;;;;;;10389034;28;21031;-72
2021/10/11 20:07:21;;;;;;;0.10;0.10;;;;;;;;;;10387229;28;20049;-71
2021/10/11 20:12:23;;;;;;;0.10;0.10;;;;;;;;;;10388882;28;20045;-72
2021/10/11 20:17:27;;;;;;;0.10;0.10;;;;;;;;;;10388854;28;20037;-72
2021/10/11 20:22:32;;;;;;;0.20;0.20;;;;;;;;;;10388716;28;20853;-72
2021/10/11 20:27:36;;;;;;;0.10;0.10;;;;;;;;;;10370275;28;20071;-72
2021/10/11 20:32:39;;;;;;;0.22;0.10;;;;;;;;;;10386983;28;20037;-71
2021/10/11 20:37:43;;;;;;;0.10;0.10;;;;;;;;;;10388547;28;20053;-70
2021/10/11 20:42:46;;;;;;;0.10;0.10;;;;;;;;;;10387679;28;20120;-71
2021/10/11 20:47:48;;;;;;;0.10;0.10;;;;;;;;;;10395982;28;20033;-71
2021/10/11 20:52:53;;;;;;;0.10;0.10;;;;;;;;;;10395275;28;20048;-71
2021/10/11 20:57:58;;;;;;;0.10;0.10;;;;;;;;;;10396441;28;20045;-71
2021/10/11 21:03:01;;;;;;;0.10;0.10;;;;;;;;;;10395859;28;20380;-71
2021/10/11 21:08:06;;;;;;;0.10;0.10;;;;;;;;;;10394548;28;20045;-70
2021/10/11 21:13:09;;;;;;;0.10;0.10;;;;;;;;;;10394101;28;20424;-72
2021/10/11 21:18:12;;;;;;;0.20;0.20;;;;;;;;;;10377664;28;20060;-71
2021/10/11 21:23:16;;;;;;;0.10;0.10;;;;;;;;;;10395380;28;20481;-69
2021/10/11 21:28:19;;;;;;;0.20;0.20;;;;;;;;;;10394912;28;20042;-69
2021/10/11 21:33:22;;;;;;;0.10;0.10;;;;;;;;;;10393584;28;20038;-69
2021/10/11 21:38:26;;;;;;;0.10;0.10;;;;;;;;;;10376768;28;20049;-70
2021/10/11 21:43:29;;;;;;;0.10;0.10;;;;;;;;;;10376275;28;20045;-70
2021/10/11 21:48:36;;;;;;;0.10;0.10;;;;;;;;;;10376246;28;20049;-70
2021/10/11 21:53:40;;;;;;;0.10;0.10;;;;;;;;;;10392738;28;20044;-69
2021/10/11 21:58:42;;;;;;;0.10;0.10;;;;;;;;;;10374287;28;20041;-71
2021/10/11 22:03:45;;;;;;;0.13;0.13;;;;;;;;;;10396698;28;20034;-70
2021/10/11 22:08:49;;;;;;;0.10;0.10;;;;;;;;;;10394900;28;20140;-70
2021/10/11 22:13:52;;;;;;;0.10;0.10;;;;;;;;;;10395531;28;20772;-71
2021/10/11 22:18:55;;;;;;;0.10;0.10;;;;;;;;;;10393682;28;20053;-70
2021/10/11 22:23:59;;;;;;;0.10;0.10;;;;;;;;;;10394903;28;20503;-70
2021/10/11 22:29:02;;;;;;;0.10;0.10;;;;;;;;;;10376544;28;20064;-70
2021/10/11 22:34:06;;;;;;;0.10;0.10;;;;;;;;;;10376653;28;20404;-71
2021/10/11 22:39:10;;;;;;;0.10;0.10;;;;;;;;;;10394907;28;20415;-70
2021/10/11 22:44:13;;;;;;;0.10;0.10;;;;;;;;;;10393323;28;20047;-71
2021/10/11 22:49:16;;;;;;;0.10;0.10;;;;;;;;;;10394346;28;20132;-70
2021/10/11 22:54:20;;;;;;;0.10;0.10;;;;;;;;;;10396251;28;20805;-70
2021/10/11 22:59:23;;;;;;;0.10;0.10;;;;;;;;;;10396401;28;20058;-70
2021/10/11 23:04:25;;;;;;;0.10;0.10;;;;;;;;;;10396478;28;20045;-70
2021/10/11 23:09:29;;;;;;;0.17;0.17;;;;;;;;;;10376636;28;20047;-70
2021/10/11 23:14:32;;;;;;;0.15;0.15;;;;;;;;;;10395819;28;20049;-70
2021/10/11 23:19:35;;;;;;;0.10;0.10;;;;;;;;;;10393259;28;20041;-70
2021/10/11 23:24:39;;;;;;;0.08;0.08;;;;;;;;;;10393968;28;20041;-71
2021/10/11 23:29:42;;;;;;;0.10;0.10;;;;;;;;;;10393057;28;20049;-70
2021/10/11 23:34:45;;;;;;;0.10;0.10;;;;;;;;;;10393884;28;20075;-70
2021/10/11 23:39:49;;;;;;;0.10;0.10;;;;;;;;;;10394403;28;20139;-71
2021/10/11 23:44:52;;;;;;;0.10;0.10;;;;;;;;;;10373561;28;20664;-71
2021/10/11 23:49:54;;;;;;;0.10;0.10;;;;;;;;;;10395079;28;20033;-71
2021/10/11 23:54:58;;;;;;;0.10;0.10;;;;;;;;;;10375071;28;20045;-70
